SLC weather

Public forecast

Using degrees Fahrenheit for public forecast. Weather courtesy of forecast.io.

Current aviation weather report (METAR) for Salt Lake City International Airport

Retrieved 2020/08/15 01:54 UTC (24 minutes ago):

KSLC 150154Z 02008KT 10SM FEW240 31/00 A3012 RMK AO2 SLP141 T03110000

Aviation forecast (TAF) for Salt Lake City International Airport

Retrieved 2020-08-15 00:22 UTC (2 hours ago):

TAF KSLC 142320Z 1500/1606 33009KT P6SM SKC FM150400 15007KT P6SM SKC FM151800 31008KT P6SM SKC